Time,TemperatureF,DewpointF,PressureIn,WindDirection,WindDirectionDegrees,WindSpeedMPH,WindSpeedGustMPH,Humidity,HourlyPrecipIn,Conditions,Clouds,dailyrainin,SoftwareType,DateUTC
2013-01-27 00:06:00,33.7,31.0,29.90,SSW,210,0.0,-999.0,89,-99.99,,,0.02,weatherlink.com 1.10,2013-01-27 07:06:00,
2013-01-27 00:21:00,33.7,31.0,29.89,SSW,210,0.0,-999.0,89,-99.99,,,0.02,weatherlink.com 1.10,2013-01-27 07:21:00,
2013-01-27 00:36:00,33.8,31.0,29.89,North,350,0.0,-999.0,89,-99.99,,,0.02,weatherlink.com 1.10,2013-01-27 07:36:00,
2013-01-27 00:51:00,33.7,31.0,29.89,North,351,0.0,-999.0,89,-99.99,,,0.02,weatherlink.com 1.10,2013-01-27 07:51:00,
2013-01-27 01:06:00,33.8,31.0,29.89,North,350,0.0,-999.0,89,-99.99,,,0.02,weatherlink.com 1.10,2013-01-27 08:06:00,
2013-01-27 01:21:00,33.8,31.0,29.90,North,351,0.0,-999.0,89,-99.99,,,0.02,weatherlink.com 1.10,2013-01-27 08:21:00,
2013-01-27 01:36:00,33.8,31.0,29.90,North,351,0.0,-999.0,89,-99.99,,,0.02,weatherlink.com 1.10,2013-01-27 08:36:00,
2013-01-27 01:51:00,33.8,31.0,29.90,North,351,0.0,-999.0,89,-99.99,,,0.02,weatherlink.com 1.10,2013-01-27 08:51:00,
2013-01-27 02:06:00,33.8,31.0,29.90,North,351,0.0,-999.0,89,-99.99,,,0.02,weatherlink.com 1.10,2013-01-27 09:06:00,
2013-01-27 02:21:00,34.0,31.0,29.89,North,351,0.0,-999.0,89,-99.99,,,0.02,weatherlink.com 1.10,2013-01-27 09:21:00,
2013-01-27 02:36:00,34.1,31.0,29.90,North,351,0.0,-999.0,89,-99.99,,,0.02,weatherlink.com 1.10,2013-01-27 09:36:00,
2013-01-27 02:51:00,34.0,31.0,29.90,North,350,0.0,-999.0,89,-99.99,,,0.02,weatherlink.com 1.10,2013-01-27 09:51:00,
2013-01-27 03:06:00,34.1,31.0,29.90,North,351,0.0,-999.0,89,-99.99,,,0.02,weatherlink.com 1.10,2013-01-27 10:06:00,
2013-01-27 03:21:00,34.1,31.0,29.90,North,351,0.0,-999.0,89,-99.99,,,0.02,weatherlink.com 1.10,2013-01-27 10:21:00,
2013-01-27 03:36:00,34.1,31.0,29.90,North,351,0.0,-999.0,89,-99.99,,,0.02,weatherlink.com 1.10,2013-01-27 10:36:00,
2013-01-27 03:51:00,34.1,31.0,29.89,North,351,0.0,-999.0,89,-99.99,,,0.02,weatherlink.com 1.10,2013-01-27 10:51:00,
2013-01-27 04:06:00,34.0,31.0,29.89,North,351,0.0,-999.0,89,-99.99,,,0.02,weatherlink.com 1.10,2013-01-27 11:06:00,
2013-01-27 04:21:00,34.1,31.0,29.89,North,351,0.0,-999.0,89,-99.99,,,0.02,weatherlink.com 1.10,2013-01-27 11:21:00,
2013-01-27 04:36:00,34.3,31.0,29.89,North,351,0.0,-999.0,89,-99.99,,,0.02,weatherlink.com 1.10,2013-01-27 11:36:00,
2013-01-27 04:51:00,34.3,31.0,29.89,North,351,0.0,-999.0,89,-99.99,,,0.02,weatherlink.com 1.10,2013-01-27 11:51:00,
2013-01-27 05:06:00,34.1,31.0,29.89,North,351,0.0,-999.0,89,-99.99,,,0.02,weatherlink.com 1.10,2013-01-27 12:06:00,
2013-01-27 05:21:00,34.1,31.0,29.90,North,351,0.0,-999.0,89,-99.99,,,0.02,weatherlink.com 1.10,2013-01-27 12:21:00,
2013-01-27 05:36:00,34.1,31.0,29.90,North,351,0.0,-999.0,89,-99.99,,,0.02,weatherlink.com 1.10,2013-01-27 12:36:00,
2013-01-27 05:51:00,34.0,31.0,29.90,North,351,0.0,-999.0,89,-99.99,,,0.02,weatherlink.com 1.10,2013-01-27 12:51:00,
2013-01-27 06:07:00,34.0,31.0,29.90,North,351,0.0,-999.0,89,-99.99,,,0.02,weatherlink.com 1.10,2013-01-27 13:07:00,
2013-01-27 06:21:00,34.0,31.0,29.91,North,351,0.0,-999.0,89,-99.99,,,0.02,weatherlink.com 1.10,2013-01-27 13:21:00,
2013-01-27 06:36:00,34.1,31.0,29.91,North,351,0.0,-999.0,89,-99.99,,,0.02,weatherlink.com 1.10,2013-01-27 13:36:00,
2013-01-27 06:51:00,34.0,31.0,29.92,North,351,0.0,-999.0,89,-99.99,,,0.02,weatherlink.com 1.10,2013-01-27 13:51:00,
2013-01-27 07:06:00,33.8,31.0,29.92,North,351,0.0,-999.0,89,-99.99,,,0.02,weatherlink.com 1.10,2013-01-27 14:06:00,
2013-01-27 07:21:00,33.8,31.0,29.92,North,351,0.0,-999.0,89,-99.99,,,0.02,weatherlink.com 1.10,2013-01-27 14:21:00,
2013-01-27 07:36:00,34.0,31.0,29.92,North,351,0.0,-999.0,89,-99.99,,,0.02,weatherlink.com 1.10,2013-01-27 14:36:00,
2013-01-27 07:51:00,34.1,31.0,29.92,North,351,0.0,-999.0,89,-99.99,,,0.02,weatherlink.com 1.10,2013-01-27 14:51:00,
2013-01-27 08:06:00,34.1,31.0,29.92,North,351,0.0,-999.0,89,-99.99,,,0.02,weatherlink.com 1.10,2013-01-27 15:06:00,
2013-01-27 08:21:00,34.3,31.0,29.92,North,351,0.0,-999.0,89,-99.99,,,0.02,weatherlink.com 1.10,2013-01-27 15:21:00,
2013-01-27 08:36:00,34.6,32.0,29.91,North,351,0.0,-999.0,89,-99.99,,,0.02,weatherlink.com 1.10,2013-01-27 15:36:00,
2013-01-27 08:51:00,35.2,32.0,29.91,North,351,0.0,-999.0,89,-99.99,,,0.02,weatherlink.com 1.10,2013-01-27 15:51:00,
2013-01-27 09:06:00,35.3,32.0,29.92,North,351,0.0,-999.0,89,-99.99,,,0.02,weatherlink.com 1.10,2013-01-27 16:06:00,
2013-01-27 09:21:00,35.9,33.0,29.90,North,351,0.0,-999.0,89,-99.99,,,0.02,weatherlink.com 1.10,2013-01-27 16:21:00,
2013-01-27 09:36:00,36.0,33.0,29.90,North,351,0.0,-999.0,89,-99.99,,,0.02,weatherlink.com 1.10,2013-01-27 16:36:00,
2013-01-27 09:51:00,36.3,33.0,29.90,North,351,0.0,-999.0,89,-99.99,,,0.02,weatherlink.com 1.10,2013-01-27 16:51:00,
2013-01-27 10:06:00,36.5,34.0,29.91,North,351,0.0,-999.0,89,-99.99,,,0.02,weatherlink.com 1.10,2013-01-27 17:06:00,
2013-01-27 10:22:00,37.0,34.0,29.92,North,350,0.0,-999.0,89,-99.99,,,0.02,weatherlink.com 1.10,2013-01-27 17:22:00,
2013-01-27 10:37:00,37.2,34.0,29.92,North,351,1.0,-999.0,89,-99.99,,,0.02,weatherlink.com 1.10,2013-01-27 17:37:00,
2013-01-27 10:52:00,38.3,35.0,29.91,East,99,1.0,-999.0,89,-99.99,,,0.02,weatherlink.com 1.10,2013-01-27 17:52:00,
2013-01-27 11:07:00,39.1,36.0,29.89,SSE,162,4.0,-999.0,87,-99.99,,,0.02,weatherlink.com 1.10,2013-01-27 18:07:00,
2013-01-27 11:22:00,39.8,36.0,29.86,South,186,0.0,-999.0,85,-99.99,,,0.02,weatherlink.com 1.10,2013-01-27 18:22:00,
2013-01-27 11:37:00,39.3,35.0,29.87,SW,236,0.0,-999.0,83,-99.99,,,0.02,weatherlink.com 1.10,2013-01-27 18:37:00,
2013-01-27 11:52:00,39.8,35.0,29.86,NW,317,3.0,-999.0,83,-99.99,,,0.02,weatherlink.com 1.10,2013-01-27 18:52:00,
2013-01-27 12:07:00,40.5,36.0,29.85,NNW,333,2.0,-999.0,83,-99.99,,,0.02,weatherlink.com 1.10,2013-01-27 19:07:00,
2013-01-27 12:22:00,41.1,35.0,29.83,NW,325,1.0,-999.0,80,-99.99,,,0.02,weatherlink.com 1.10,2013-01-27 19:22:00,
2013-01-27 12:37:00,42.1,35.0,29.82,NW,319,1.0,-999.0,77,-99.99,,,0.02,weatherlink.com 1.10,2013-01-27 19:37:00,
2013-01-27 12:52:00,41.9,36.0,29.81,WNW,298,0.0,-999.0,78,-99.99,,,0.02,weatherlink.com 1.10,2013-01-27 19:52:00,
2013-01-27 13:07:00,42.3,36.0,29.80,WNW,298,3.0,-999.0,77,-99.99,,,0.02,weatherlink.com 1.10,2013-01-27 20:07:00,
2013-01-27 13:22:00,42.9,36.0,29.80,NNW,345,1.0,-999.0,77,-99.99,,,0.02,weatherlink.com 1.10,2013-01-27 20:22:00,
2013-01-27 13:37:00,43.3,36.0,29.79,NNW,336,0.0,-999.0,76,-99.99,,,0.02,weatherlink.com 1.10,2013-01-27 20:37:00,
2013-01-27 13:52:00,44.1,37.0,29.77,NNW,333,4.0,-999.0,75,-99.99,,,0.02,weatherlink.com 1.10,2013-01-27 20:52:00,
2013-01-27 14:07:00,45.2,37.0,29.76,NNW,333,0.0,-999.0,72,-99.99,,,0.02,weatherlink.com 1.10,2013-01-27 21:07:00,
2013-01-27 14:22:00,46.0,37.0,29.75,NW,311,3.0,-999.0,71,-99.99,,,0.02,weatherlink.com 1.10,2013-01-27 21:22:00,
2013-01-27 14:37:00,45.8,37.0,29.74,NW,311,1.0,-999.0,72,-99.99,,,0.02,weatherlink.com 1.10,2013-01-27 21:37:00,
2013-01-27 14:52:00,45.8,37.0,29.74,NW,311,1.0,-999.0,72,-99.99,,,0.02,weatherlink.com 1.10,2013-01-27 21:52:00,
2013-01-27 15:07:00,-999.0,-99.9,29.78,North,-999,-999.0,-999.0,-999,-99.99,,,0.02,weatherlink.com 1.10,2013-01-27 22:07:00,
2013-01-27 15:22:00,-999.0,-99.9,29.77,North,-999,-999.0,-999.0,-999,-99.99,,,0.02,weatherlink.com 1.10,2013-01-27 22:22:00,
2013-01-27 15:37:00,-999.0,-99.9,29.79,North,-999,-999.0,-999.0,-999,-99.99,,,0.02,weatherlink.com 1.10,2013-01-27 22:37:00,
2013-01-27 15:52:00,-999.0,-99.9,29.78,North,-999,-999.0,-999.0,-999,-99.99,,,0.02,weatherlink.com 1.10,2013-01-27 22:52:00,
2013-01-27 16:07:00,49.2,38.0,29.71,South,172,0.0,-999.0,65,-99.99,,,0.02,weatherlink.com 1.10,2013-01-27 23:07:00,
2013-01-27 16:22:00,48.6,38.0,29.72,South,182,3.0,-999.0,66,-99.99,,,0.02,weatherlink.com 1.10,2013-01-27 23:22:00,
2013-01-27 16:37:00,47.9,37.0,29.71,South,184,1.0,-999.0,67,-99.99,,,0.02,weatherlink.com 1.10,2013-01-27 23:37:00,
2013-01-27 16:52:00,47.0,37.0,29.71,South,184,1.0,-999.0,68,-99.99,,,0.02,weatherlink.com 1.10,2013-01-27 23:52:00,
2013-01-27 17:07:00,45.5,37.0,29.71,West,264,0.0,-999.0,71,-99.99,,,0.02,weatherlink.com 1.10,2013-01-28 00:07:00,
2013-01-27 17:23:00,43.9,36.0,29.71,West,264,0.0,-999.0,74,-99.99,,,0.02,weatherlink.com 1.10,2013-01-28 00:23:00,
2013-01-27 17:38:00,42.8,36.0,29.71,West,264,0.0,-999.0,76,-99.99,,,0.02,weatherlink.com 1.10,2013-01-28 00:38:00,
2013-01-27 17:53:00,41.8,35.0,29.72,West,264,0.0,-999.0,78,-99.99,,,0.02,weatherlink.com 1.10,2013-01-28 00:53:00,
2013-01-27 18:08:00,40.5,35.0,29.73,West,264,0.0,-999.0,80,-99.99,,,0.02,weatherlink.com 1.10,2013-01-28 01:08:00,
2013-01-27 18:23:00,39.3,34.0,29.72,West,264,0.0,-999.0,81,-99.99,,,0.02,weatherlink.com 1.10,2013-01-28 01:23:00,
2013-01-27 18:38:00,38.6,34.0,29.73,West,264,0.0,-999.0,82,-99.99,,,0.02,weatherlink.com 1.10,2013-01-28 01:38:00,
2013-01-27 18:53:00,38.6,34.0,29.72,West,264,0.0,-999.0,83,-99.99,,,0.02,weatherlink.com 1.10,2013-01-28 01:53:00,
2013-01-27 19:08:00,38.9,34.0,29.71,East,94,1.0,-999.0,83,-99.99,,,0.02,weatherlink.com 1.10,2013-01-28 02:08:00,
2013-01-27 19:23:00,41.3,34.0,29.70,SSW,207,1.0,-999.0,74,-99.99,,,0.02,weatherlink.com 1.10,2013-01-28 02:23:00,
2013-01-27 19:38:00,47.9,32.0,29.69,SSE,151,9.0,-999.0,55,-99.99,,,0.02,weatherlink.com 1.10,2013-01-28 02:38:00,
2013-01-27 19:53:00,49.9,34.0,29.65,ESE,108,2.0,-999.0,54,-99.99,,,0.02,weatherlink.com 1.10,2013-01-28 02:53:00,
2013-01-27 20:08:00,49.1,34.0,29.65,South,180,0.0,-999.0,56,-99.99,,,0.02,weatherlink.com 1.10,2013-01-28 03:08:00,
2013-01-27 20:23:00,48.6,34.0,29.64,SE,144,1.0,-999.0,57,-99.99,,,0.02,weatherlink.com 1.10,2013-01-28 03:23:00,
2013-01-27 20:38:00,50.4,34.0,29.64,SSW,213,2.0,-999.0,53,-99.99,,,0.02,weatherlink.com 1.10,2013-01-28 03:38:00,
2013-01-27 20:53:00,49.4,34.0,29.65,NNW,347,0.0,-999.0,55,-99.99,,,0.02,weatherlink.com 1.10,2013-01-28 03:53:00,
2013-01-27 21:08:00,44.2,33.0,29.66,NW,318,0.0,-999.0,65,-99.99,,,0.02,weatherlink.com 1.10,2013-01-28 04:08:00,
2013-01-27 21:23:00,41.8,33.0,29.67,NW,318,3.0,-999.0,70,-99.99,,,0.02,weatherlink.com 1.10,2013-01-28 04:23:00,
2013-01-27 21:38:00,39.9,32.0,29.68,NW,318,0.0,-999.0,73,-99.99,,,0.02,weatherlink.com 1.10,2013-01-28 04:38:00,
2013-01-27 21:53:00,38.9,32.0,29.68,NW,318,0.0,-999.0,75,-99.99,,,0.02,weatherlink.com 1.10,2013-01-28 04:53:00,
2013-01-27 22:08:00,37.8,31.0,29.69,NW,318,0.0,-999.0,77,-99.99,,,0.02,weatherlink.com 1.10,2013-01-28 05:08:00,
2013-01-27 22:23:00,37.2,31.0,29.68,NW,318,0.0,-999.0,79,-99.99,,,0.02,weatherlink.com 1.10,2013-01-28 05:23:00,
2013-01-27 22:38:00,36.6,31.0,29.68,NW,318,0.0,-999.0,80,-99.99,,,0.02,weatherlink.com 1.10,2013-01-28 05:38:00,
2013-01-27 22:53:00,36.3,31.0,29.68,NW,318,0.0,-999.0,81,-99.99,,,0.02,weatherlink.com 1.10,2013-01-28 05:53:00,
2013-01-27 23:08:00,36.5,32.0,29.70,SE,144,2.0,-999.0,82,-99.99,,,0.00,weatherlink.com 1.10,2013-01-28 06:08:00,
2013-01-27 23:23:00,37.0,32.0,29.68,WSW,257,0.0,-999.0,81,-99.99,,,0.00,weatherlink.com 1.10,2013-01-28 06:23:00,
2013-01-27 23:38:00,36.9,32.0,29.69,WNW,303,0.0,-999.0,81,-99.99,,,0.00,weatherlink.com 1.10,2013-01-28 06:38:00,
2013-01-27 23:53:00,36.6,31.0,29.69,SSW,206,3.0,-999.0,81,-99.99,,,0.00,weatherlink.com 1.10,2013-01-28 06:53:00,